Terminal Aerodrome Forecast
Issued by NWS Cheyenne, WY

Home | Current Version | Previous Version | Text Only | Print | Product List | Glossary On
Versions: 1 2 3 4 5 6 7 8 9 10 11 12 13 14 15 16 17 18 19 20 21 22 23 24 25
000
FTUS45 KCYS 211700
TAFCYS
TAF
KCYS 211720Z 2118/2218 24013G23KT P6SM SCT060 BKN120
     FM212100 22013G23KT P6SM VCSH SCT070 BKN100
     FM220600 31010KT P6SM BKN200=

USA.gov is the U.S. government's official web portal to all federal, state and local government web resources and services.